Huvudsida
METAR-TAF:

METAR-TAF

Flygplatser :

Jerez flygplats

Jerez de la Frontera, Spanien

latitud: 36-45N, longitud: 006-04W, höjd: 27 m

Aktuellt väderrapport

Denna rapport gjordes för 31 minuter sedan, klockan 02:30 UTC
Vind 5 kt från nord, varierande mellan nord/nordväst och nord/nordost
Temperatur 10°C
Fuktighet 93%
Tryck 1013 hPa
Sikt 10 km eller mer

METAR: LEJR 200230Z AUTO 36005KT 330V030 9999 NCD 10/09 Q1013

Tid: 05:01 (03:01 UTC)

Väderprognos

Denna rapport gjordes för 4 timmar och 1 minuter sedan, klockan 23:00 UTC
Prognos gäller från 20 kl. 00 UTC till 20 kl. 24 UTC
Vind 8 kt från nord/nordost
Sikt 10 km eller mer
Få moln på en höjd av 3000 ft
Sannolikhet 40% :
Temporärt
från 20 kl. 02 UTC till 20 kl. 08 UTC
Sikt: 3000 m
Brutna moln på en höjd av 500 ft
fuktdis

TAF: LEJR 192300Z 2000/2024 02008KT 9999 FEW030 TX22/2014Z TN08/2006Z PROB40 TEMPO 2002/2008 3000 BR BKN005

Aktuella väderrapporter och prognoser från 4000 flygplatser (METAR- och TAF-rapporter).

De tillgängliga stationerna syns som gula och röda prickar på kartan.

För musen över prickarna för att se namnen på stationerna.

Klicka sedan för att få väderrapporter och prognoser.

För att ändra kartan: Klicka på de gröna knapparna med ett svart kors på för att zooma in; den gröna knappen med ett streck på för att zooma ut; eller på de gröna pilarna för angränsande kartor.


METAR-TAF: